createdAt,value
2023-05-21T00:02:18.737Z,13.55
2023-05-21T00:05:05.473Z,14.23
2023-05-21T00:07:53.680Z,13.40
2023-05-21T00:10:39.063Z,15.32
2023-05-21T00:13:24.499Z,13.07
2023-05-21T00:16:11.367Z,12.85
2023-05-21T00:18:58.305Z,14.77
2023-05-21T00:21:46.035Z,13.65
2023-05-21T00:27:16.916Z,18.20
2023-05-21T00:30:03.737Z,12.25
2023-05-21T00:32:49.201Z,13.77
2023-05-21T00:35:34.839Z,14.27
2023-05-21T00:38:20.664Z,12.38
2023-05-21T00:41:06.003Z,15.20
2023-05-21T00:43:52.882Z,14.98
2023-05-21T00:46:38.566Z,15.65
2023-05-21T00:49:24.582Z,13.57
2023-05-21T00:52:11.592Z,12.68
2023-05-21T00:54:57.251Z,14.95
2023-05-21T00:57:43.110Z,15.63
2023-05-21T01:00:28.770Z,15.63
2023-05-21T01:03:14.810Z,13.90
2023-05-21T01:06:00.607Z,13.05
2023-05-21T01:08:46.717Z,14.95
2023-05-21T01:11:44.970Z,19.48
2023-05-21T01:14:31.502Z,18.05
2023-05-21T01:17:17.098Z,16.60
2023-05-21T01:20:10.155Z,15.70
2023-05-21T01:22:56.925Z,16.88
2023-05-21T01:25:43.923Z,13.88
2023-05-21T01:28:34.511Z,15.55
2023-05-21T01:31:28.485Z,15.90
2023-05-21T01:34:16.848Z,18.40
2023-05-21T01:37:13.115Z,13.00
2023-05-21T01:40:08.405Z,13.48
2023-05-21T01:42:54.341Z,19.15
2023-05-21T01:45:42.311Z,15.20
2023-05-21T01:48:29.758Z,16.10
2023-05-21T01:54:01.861Z,15.45
2023-05-21T01:56:48.029Z,16.58
2023-05-21T01:59:33.981Z,14.82
2023-05-21T02:02:19.717Z,16.17
2023-05-21T02:05:05.846Z,17.95
2023-05-21T02:07:52.185Z,14.07
2023-05-21T02:10:37.603Z,17.42
2023-05-21T02:13:26.247Z,16.33
2023-05-21T02:16:14.976Z,13.07
2023-05-21T02:19:00.994Z,17.00
2023-05-21T02:21:46.612Z,20.58
2023-05-21T02:24:32.092Z,18.38
2023-05-21T02:27:17.922Z,19.20
2023-05-21T02:30:08.571Z,20.73
2023-05-21T02:32:55.765Z,16.20
2023-05-21T02:35:41.764Z,16.73
2023-05-21T02:38:27.297Z,17.90
2023-05-21T02:41:12.790Z,15.52
2023-05-21T02:43:58.011Z,16.25
2023-05-21T02:46:43.637Z,18.35
2023-05-21T02:49:29.657Z,19.58
2023-05-21T02:52:15.180Z,15.93
2023-05-21T02:55:00.829Z,18.60
2023-05-21T02:57:46.671Z,18.35
2023-05-21T03:00:32.429Z,16.98
2023-05-21T03:03:19.295Z,17.50
2023-05-21T03:06:04.988Z,14.25
2023-05-21T03:08:50.469Z,19.83
2023-05-21T03:11:35.967Z,18.50
2023-05-21T03:14:23.113Z,14.68
2023-05-21T03:17:08.798Z,19.63
2023-05-21T03:19:54.825Z,15.73
2023-05-21T03:22:40.823Z,19.17
2023-05-21T03:25:26.445Z,19.15
2023-05-21T03:28:13.468Z,20.23
2023-05-21T03:31:05.830Z,20.58
2023-05-21T03:34:06.217Z,18.70
2023-05-21T03:36:51.862Z,17.17
2023-05-21T03:39:37.814Z,21.40
2023-05-21T03:42:24.768Z,20.70
2023-05-21T03:45:12.712Z,17.08
2023-05-21T03:48:27.409Z,20.48
2023-05-21T03:51:13.360Z,17.98
2023-05-21T03:53:59.853Z,20.75
2023-05-21T03:56:46.063Z,20.10
2023-05-21T03:59:31.318Z,16.42
2023-05-21T04:02:17.825Z,22.05
2023-05-21T04:05:03.527Z,19.33
2023-05-21T04:07:50.154Z,19.73
2023-05-21T04:10:36.009Z,17.90
2023-05-21T04:13:21.997Z,20.30
2023-05-21T04:16:10.334Z,20.35
2023-05-21T04:18:56.296Z,18.77
2023-05-21T04:21:45.961Z,16.90
2023-05-21T04:24:33.918Z,18.63
2023-05-21T04:27:26.161Z,18.38
2023-05-21T04:30:12.545Z,20.23
2023-05-21T04:33:00.371Z,21.30
2023-05-21T04:35:47.420Z,18.67
2023-05-21T04:38:33.399Z,20.17
2023-05-21T04:41:19.140Z,23.50
2023-05-21T04:44:07.495Z,20.30
2023-05-21T04:46:54.988Z,20.90
2023-05-21T04:52:26.950Z,22.38
2023-05-21T04:55:12.706Z,22.58
2023-05-21T04:57:58.501Z,22.40
2023-05-21T05:00:47.001Z,23.23
2023-05-21T05:03:33.946Z,21.75
2023-05-21T05:06:19.240Z,23.75
2023-05-21T05:09:05.347Z,21.42
2023-05-21T05:11:51.490Z,21.80
2023-05-21T05:14:37.225Z,21.48
2023-05-21T05:17:22.622Z,19.67
2023-05-21T05:20:10.091Z,24.15
2023-05-21T05:22:56.580Z,21.45
2023-05-21T05:25:42.012Z,20.73
2023-05-21T05:28:27.986Z,20.02
2023-05-21T05:31:14.116Z,20.52
2023-05-21T05:34:01.867Z,21.50
2023-05-21T05:36:47.870Z,19.23
2023-05-21T05:39:33.281Z,18.05
2023-05-21T05:42:19.089Z,19.15
2023-05-21T05:45:04.977Z,20.35
2023-05-21T05:47:50.744Z,25.10
2023-05-21T05:50:36.340Z,19.63
2023-05-21T05:53:21.757Z,22.13
2023-05-21T05:56:08.935Z,21.02
2023-05-21T05:58:55.793Z,22.40
2023-05-21T06:01:42.525Z,21.92
2023-05-21T06:04:30.230Z,20.77
2023-05-21T06:07:16.073Z,18.85
2023-05-21T06:10:01.423Z,20.15
2023-05-21T06:12:47.542Z,21.65
2023-05-21T06:15:34.492Z,20.60
2023-05-21T06:18:21.067Z,21.33
2023-05-21T06:21:07.696Z,22.45
2023-05-21T06:23:54.598Z,18.73
2023-05-21T06:26:40.349Z,22.52
2023-05-21T06:29:26.380Z,23.27
2023-05-21T06:32:13.749Z,23.95
2023-05-21T06:35:00.239Z,20.65
2023-05-21T06:37:46.376Z,19.73
2023-05-21T06:40:32.139Z,18.33
2023-05-21T06:43:18.461Z,19.48
2023-05-21T06:46:23.039Z,17.27
2023-05-21T06:49:14.481Z,18.08
2023-05-21T06:52:02.266Z,20.40
2023-05-21T06:54:48.451Z,20.55
2023-05-21T06:57:34.487Z,18.15
2023-05-21T07:00:20.130Z,18.50
2023-05-21T07:03:05.884Z,18.63
2023-05-21T07:05:51.649Z,16.92
2023-05-21T07:08:36.919Z,17.83
2023-05-21T07:11:25.326Z,16.90
2023-05-21T07:14:10.990Z,17.95
2023-05-21T07:16:56.897Z,17.83
2023-05-21T07:19:42.734Z,17.55
2023-05-21T07:22:28.810Z,15.80
2023-05-21T07:25:14.487Z,12.60
2023-05-21T07:28:00.052Z,18.02
2023-05-21T07:30:46.158Z,18.45
2023-05-21T07:33:36.112Z,16.80
2023-05-21T07:36:21.889Z,19.70
2023-05-21T07:39:07.385Z,19.30
2023-05-21T07:41:53.170Z,15.45
2023-05-21T07:44:39.143Z,14.93
2023-05-21T07:47:26.791Z,15.50
2023-05-21T07:50:12.910Z,14.30
2023-05-21T07:52:58.718Z,13.93
2023-05-21T07:55:48.112Z,15.80
2023-05-21T07:58:37.032Z,13.45
2023-05-21T08:01:24.269Z,13.98
2023-05-21T08:04:10.134Z,15.60
2023-05-21T08:06:56.587Z,12.88
2023-05-21T08:09:42.429Z,13.40
2023-05-21T08:12:29.347Z,15.57
2023-05-21T08:15:15.322Z,11.75
2023-05-21T08:18:04.167Z,16.17
2023-05-21T08:20:50.525Z,14.65
2023-05-21T08:23:38.581Z,16.08
2023-05-21T08:26:24.182Z,12.20
2023-05-21T08:29:10.081Z,13.60
2023-05-21T08:31:56.548Z,15.23
2023-05-21T08:34:42.662Z,12.13
2023-05-21T08:37:50.411Z,15.98
2023-05-21T08:41:10.200Z,12.88
2023-05-21T08:43:59.846Z,10.70
2023-05-21T08:46:49.204Z,13.02
2023-05-21T08:49:36.083Z,15.18
2023-05-21T08:52:21.777Z,10.50
2023-05-21T08:55:08.854Z,14.05
2023-05-21T08:57:55.988Z,12.55
2023-05-21T09:00:43.552Z,10.90
2023-05-21T09:03:31.956Z,10.25
2023-05-21T09:06:17.341Z,12.52
2023-05-21T09:09:11.796Z,11.73
2023-05-21T09:12:01.864Z,10.57
2023-05-21T09:14:48.065Z,10.77
2023-05-21T09:17:36.102Z,10.27
2023-05-21T09:20:54.249Z,8.33
2023-05-21T09:23:40.807Z,9.83
2023-05-21T09:26:27.217Z,10.23
2023-05-21T09:29:19.704Z,11.93
2023-05-21T09:32:09.155Z,9.50
2023-05-21T09:34:58.068Z,8.20
2023-05-21T09:37:52.405Z,8.65
2023-05-21T09:40:44.639Z,11.30
2023-05-21T09:43:31.310Z,9.40
2023-05-21T09:46:25.822Z,8.98
2023-05-21T09:49:25.117Z,6.43
2023-05-21T09:52:11.430Z,11.38
2023-05-21T09:54:57.509Z,7.88
2023-05-21T09:57:43.899Z,9.93
2023-05-21T10:00:29.622Z,6.75
2023-05-21T10:03:17.112Z,8.88
2023-05-21T10:06:03.783Z,7.38
2023-05-21T10:08:52.605Z,9.45
2023-05-21T10:11:39.971Z,7.20
2023-05-21T10:14:27.722Z,8.80
2023-05-21T10:20:05.252Z,7.70
2023-05-21T10:22:51.204Z,7.53
2023-05-21T10:25:37.370Z,10.80
2023-05-21T10:28:24.101Z,9.90
2023-05-21T10:31:09.809Z,7.47
2023-05-21T10:33:56.410Z,9.15
2023-05-21T10:36:43.732Z,11.63
2023-05-21T10:39:30.782Z,8.02
2023-05-21T10:42:31.736Z,9.30
2023-05-21T10:45:42.968Z,8.90
2023-05-21T10:49:02.299Z,6.13
2023-05-21T10:52:00.555Z,6.13
2023-05-21T10:55:11.833Z,7.47
2023-05-21T10:58:16.943Z,8.25
2023-05-21T11:01:03.823Z,9.55
2023-05-21T11:03:50.570Z,8.43
2023-05-21T11:06:36.544Z,9.95
2023-05-21T11:09:23.031Z,8.50
2023-05-21T11:12:09.891Z,7.33
2023-05-21T11:14:58.563Z,8.70
2023-05-21T11:17:44.605Z,8.18
2023-05-21T11:20:34.796Z,8.25
2023-05-21T11:23:23.672Z,7.28
2023-05-21T11:26:09.249Z,11.43
2023-05-21T11:29:11.296Z,8.45
2023-05-21T11:32:05.842Z,8.73
2023-05-21T11:34:51.759Z,6.40
2023-05-21T11:37:40.856Z,9.10
2023-05-21T11:40:30.260Z,8.00
2023-05-21T11:43:15.857Z,7.80
2023-05-21T11:46:02.410Z,7.82
2023-05-21T11:48:48.614Z,8.00
2023-05-21T11:51:33.964Z,7.23
2023-05-21T11:54:19.610Z,5.93
2023-05-21T11:57:08.987Z,8.73
2023-05-21T11:59:55.039Z,7.30
2023-05-21T12:02:46.874Z,7.82
2023-05-21T12:05:47.187Z,6.82
2023-05-21T12:08:32.775Z,7.82
2023-05-21T12:11:18.395Z,8.73
2023-05-21T12:14:03.798Z,8.98
2023-05-21T12:16:49.239Z,7.47
2023-05-21T12:19:35.810Z,8.77
2023-05-21T12:22:23.581Z,6.75
2023-05-21T12:25:10.222Z,6.50
2023-05-21T12:27:57.977Z,5.97
2023-05-21T12:30:44.043Z,8.38
2023-05-21T12:33:36.012Z,6.78
2023-05-21T12:36:30.529Z,7.13
2023-05-21T12:39:16.565Z,8.38
2023-05-21T12:42:02.563Z,7.97
2023-05-21T12:44:48.207Z,7.20
2023-05-21T12:47:33.768Z,5.97
2023-05-21T12:50:22.110Z,6.97
2023-05-21T12:53:11.282Z,10.55
2023-05-21T12:56:13.695Z,6.97
2023-05-21T12:58:58.972Z,5.15
2023-05-21T13:01:48.202Z,8.00
2023-05-21T13:04:36.637Z,6.03
2023-05-21T13:07:22.895Z,7.05
2023-05-21T13:10:09.043Z,6.70
2023-05-21T13:12:54.341Z,13.88
2023-05-21T13:15:39.816Z,7.82
2023-05-21T13:18:25.728Z,6.55
2023-05-21T13:21:11.312Z,7.75
2023-05-21T13:23:56.834Z,5.20
2023-05-21T13:26:42.165Z,8.35
2023-05-21T13:29:27.563Z,8.90
2023-05-21T13:32:13.094Z,7.38
2023-05-21T13:34:58.535Z,6.93
2023-05-21T13:37:44.616Z,6.05
2023-05-21T13:40:30.397Z,12.45
2023-05-21T13:43:15.930Z,6.93
2023-05-21T13:46:01.441Z,7.40
2023-05-21T13:48:46.791Z,6.55
2023-05-21T13:54:22.784Z,6.45
2023-05-21T13:57:08.493Z,5.68
2023-05-21T13:59:54.157Z,4.93
2023-05-21T14:02:43.138Z,5.85
2023-05-21T14:05:28.797Z,7.03
2023-05-21T14:08:16.753Z,9.70
2023-05-21T14:11:04.771Z,8.23
2023-05-21T14:13:51.310Z,5.47
2023-05-21T14:16:37.406Z,6.85
2023-05-21T14:19:23.123Z,6.18
2023-05-21T14:22:08.517Z,6.22
2023-05-21T14:24:54.256Z,5.97
2023-05-21T14:27:39.538Z,5.85
2023-05-21T14:30:25.132Z,6.10
2023-05-21T14:33:11.447Z,8.43
2023-05-21T14:35:57.456Z,9.47
2023-05-21T14:38:43.189Z,6.93
2023-05-21T14:41:29.474Z,5.93
2023-05-21T14:44:15.569Z,7.35
2023-05-21T14:47:01.428Z,4.68
2023-05-21T14:49:46.897Z,4.97
2023-05-21T14:52:32.655Z,6.72
2023-05-21T14:55:18.719Z,6.25
2023-05-21T14:58:06.862Z,11.90
2023-05-21T15:00:52.286Z,5.88
2023-05-21T15:03:37.910Z,5.40
2023-05-21T15:06:23.461Z,5.97
2023-05-21T15:09:08.936Z,7.07
2023-05-21T15:11:54.654Z,6.35
2023-05-21T15:14:41.005Z,6.35
2023-05-21T15:17:26.708Z,4.85
2023-05-21T15:20:12.721Z,6.88
2023-05-21T15:23:15.400Z,5.90
2023-05-21T15:26:02.887Z,5.03
2023-05-21T15:28:48.596Z,6.63
2023-05-21T15:31:34.158Z,8.52
2023-05-21T15:34:19.797Z,6.22
2023-05-21T15:37:05.638Z,6.47
2023-05-21T15:39:51.406Z,6.82
2023-05-21T15:42:37.033Z,5.63
2023-05-21T15:45:22.667Z,8.38
2023-05-21T15:48:08.253Z,7.18
2023-05-21T15:50:54.364Z,6.10
2023-05-21T15:53:40.037Z,7.33
2023-05-21T15:56:26.636Z,4.13
2023-05-21T15:59:15.293Z,6.90
2023-05-21T16:02:01.189Z,7.50
2023-05-21T16:04:49.971Z,10.95
2023-05-21T16:07:37.004Z,5.55
2023-05-21T16:10:23.796Z,9.77
2023-05-21T16:13:09.526Z,7.53
2023-05-21T16:15:55.137Z,7.30
2023-05-21T16:18:40.580Z,7.57
2023-05-21T16:21:25.990Z,5.30
2023-05-21T16:24:11.890Z,6.03
2023-05-21T16:26:57.915Z,7.40
2023-05-21T16:29:43.387Z,5.85
2023-05-21T16:32:28.984Z,5.65
2023-05-21T16:35:14.767Z,7.03
2023-05-21T16:38:00.313Z,8.27
2023-05-21T16:40:47.227Z,8.70
2023-05-21T16:43:32.834Z,6.90
2023-05-21T16:46:18.537Z,7.50
2023-05-21T16:49:04.049Z,7.97
2023-05-21T16:51:49.356Z,6.63
2023-05-21T16:54:34.983Z,9.80
2023-05-21T16:57:20.714Z,6.78
2023-05-21T17:00:07.879Z,7.18
2023-05-21T17:05:39.266Z,7.55
2023-05-21T17:08:24.681Z,6.60
2023-05-21T17:11:10.348Z,6.28
2023-05-21T17:13:56.081Z,5.88
2023-05-21T17:16:42.985Z,6.82
2023-05-21T17:19:28.745Z,6.78
2023-05-21T17:22:14.993Z,8.30
2023-05-21T17:25:01.125Z,5.78
2023-05-21T17:27:46.814Z,6.68
2023-05-21T17:30:32.585Z,6.15
2023-05-21T17:33:18.452Z,7.43
2023-05-21T17:36:03.926Z,8.18
2023-05-21T17:38:50.798Z,6.97
2023-05-21T17:41:36.074Z,6.40
2023-05-21T17:44:22.127Z,5.93
2023-05-21T17:47:08.043Z,10.97
2023-05-21T17:49:53.968Z,8.13
2023-05-21T17:52:40.059Z,7.72
2023-05-21T17:55:25.777Z,6.72
2023-05-21T17:58:11.599Z,6.82
2023-05-21T18:00:57.369Z,7.97
2023-05-21T18:03:42.850Z,10.90
2023-05-21T18:06:29.006Z,8.70
2023-05-21T18:09:15.501Z,6.25
2023-05-21T18:12:03.536Z,4.70
2023-05-21T18:14:49.150Z,6.20
2023-05-21T18:17:34.550Z,7.13
2023-05-21T18:20:21.064Z,6.97
2023-05-21T18:23:06.843Z,6.03
2023-05-21T18:25:52.092Z,8.85
2023-05-21T18:28:37.581Z,7.00
2023-05-21T18:31:24.296Z,8.48
2023-05-21T18:34:10.321Z,8.77
2023-05-21T18:36:58.900Z,6.75
2023-05-21T18:39:44.352Z,6.65
2023-05-21T18:42:30.001Z,9.57
2023-05-21T18:45:15.773Z,6.18
2023-05-21T18:48:02.975Z,8.75
2023-05-21T18:50:48.911Z,8.50
2023-05-21T18:53:34.410Z,8.43
2023-05-21T18:56:19.879Z,8.07
2023-05-21T18:59:05.351Z,8.27
2023-05-21T19:01:51.034Z,9.70
2023-05-21T19:04:36.887Z,6.75
2023-05-21T19:07:22.537Z,8.82
2023-05-21T19:10:08.511Z,8.30
2023-05-21T19:12:54.068Z,6.80
2023-05-21T19:15:39.974Z,10.20
2023-05-21T19:18:31.732Z,7.85
2023-05-21T19:21:17.822Z,10.70
2023-05-21T19:24:05.903Z,8.32
2023-05-21T19:26:51.961Z,7.95
2023-05-21T19:29:37.262Z,9.25
2023-05-21T19:32:23.872Z,8.85
2023-05-21T19:35:09.715Z,10.35
2023-05-21T19:37:59.690Z,8.88
2023-05-21T19:40:46.698Z,8.98
2023-05-21T19:43:31.906Z,9.68
2023-05-21T19:46:20.361Z,10.55
2023-05-21T19:49:06.264Z,10.70
2023-05-21T19:51:54.665Z,8.10
2023-05-21T19:54:40.601Z,7.80
2023-05-21T19:57:26.562Z,8.48
2023-05-21T20:00:13.848Z,10.80
2023-05-21T20:02:59.131Z,15.05
2023-05-21T20:05:44.508Z,9.30
2023-05-21T20:08:29.986Z,10.75
2023-05-21T20:11:16.303Z,10.13
2023-05-21T20:14:02.369Z,9.27
2023-05-21T20:16:48.486Z,9.07
2023-05-21T20:19:35.906Z,10.10
2023-05-21T20:25:08.898Z,8.45
2023-05-21T20:27:54.639Z,7.28
2023-05-21T20:30:54.503Z,8.52
2023-05-21T20:33:41.080Z,7.85
2023-05-21T20:36:27.265Z,12.33
2023-05-21T20:39:14.091Z,7.88
2023-05-21T20:42:01.232Z,9.63
2023-05-21T20:44:46.799Z,7.57
2023-05-21T20:47:33.974Z,10.30
2023-05-21T20:50:25.887Z,9.80
2023-05-21T20:53:15.892Z,9.10
2023-05-21T20:56:02.123Z,8.25
2023-05-21T20:58:51.240Z,12.50
2023-05-21T21:01:38.028Z,8.88
2023-05-21T21:04:24.825Z,9.75
2023-05-21T21:07:11.900Z,8.93
2023-05-21T21:09:57.863Z,8.18
2023-05-21T21:12:43.455Z,7.30
2023-05-21T21:15:28.916Z,12.32
2023-05-21T21:18:15.018Z,12.13
2023-05-21T21:21:01.515Z,8.00
2023-05-21T21:23:47.214Z,10.10
2023-05-21T21:26:32.824Z,8.20
2023-05-21T21:29:18.378Z,10.48
2023-05-21T21:32:03.893Z,9.55
2023-05-21T21:34:49.290Z,6.53
2023-05-21T21:37:34.668Z,7.07
2023-05-21T21:40:20.099Z,11.25
2023-05-21T21:43:07.738Z,6.57
2023-05-21T21:45:53.198Z,14.57
2023-05-21T21:48:38.604Z,8.35
2023-05-21T21:51:23.959Z,12.20
2023-05-21T21:54:09.716Z,7.53
2023-05-21T21:56:55.436Z,7.80
2023-05-21T21:59:40.916Z,9.20
2023-05-21T22:02:26.345Z,9.52
2023-05-21T22:05:15.023Z,11.40
2023-05-21T22:08:00.389Z,8.82
2023-05-21T22:10:46.388Z,7.28
2023-05-21T22:13:31.947Z,9.60
2023-05-21T22:16:17.308Z,9.10
2023-05-21T22:19:03.002Z,8.68
2023-05-21T22:21:48.364Z,15.13
2023-05-21T22:24:33.919Z,10.90
2023-05-21T22:27:19.408Z,10.90
2023-05-21T22:30:06.028Z,11.20
2023-05-21T22:32:51.873Z,9.73
2023-05-21T22:35:37.332Z,10.98
2023-05-21T22:38:22.712Z,10.40
2023-05-21T22:41:08.602Z,11.45
2023-05-21T22:43:53.950Z,8.32
2023-05-21T22:46:42.116Z,8.75
2023-05-21T22:49:27.871Z,11.45
2023-05-21T22:52:14.686Z,9.45
2023-05-21T22:55:00.946Z,10.40
2023-05-21T22:57:46.764Z,10.00
2023-05-21T23:00:32.543Z,11.05
2023-05-21T23:03:18.129Z,7.63
2023-05-21T23:06:04.016Z,7.38
2023-05-21T23:08:49.525Z,11.60
2023-05-21T23:11:34.917Z,11.45
2023-05-21T23:14:21.047Z,9.77
2023-05-21T23:17:07.550Z,10.57
2023-05-21T23:19:52.852Z,10.88
2023-05-21T23:22:38.487Z,11.68
2023-05-21T23:25:23.870Z,13.15
2023-05-21T23:28:09.613Z,9.13
2023-05-21T23:30:55.465Z,13.52
2023-05-21T23:33:41.485Z,9.60
2023-05-21T23:36:26.976Z,8.85
2023-05-21T23:39:12.595Z,11.80
2023-05-21T23:41:58.205Z,9.23
2023-05-21T23:44:44.307Z,9.10
2023-05-21T23:47:29.802Z,13.98
2023-05-21T23:50:15.463Z,8.77
2023-05-21T23:53:01.225Z,12.82
2023-05-21T23:55:46.844Z,11.90
2023-05-21T23:58:32.382Z,11.40
